createdAt,value
2017-12-04T00:00:33.528Z,1017.02
2017-12-04T00:01:34.131Z,1016.99
2017-12-04T00:02:34.753Z,1016.97
2017-12-04T00:03:35.356Z,1016.98
2017-12-04T00:04:35.960Z,1016.97
2017-12-04T00:05:36.567Z,1016.96
2017-12-04T00:06:37.155Z,1017.00
2017-12-04T00:07:37.752Z,1016.95
2017-12-04T00:08:38.354Z,1016.99
2017-12-04T00:09:38.963Z,1016.97
2017-12-04T00:10:39.576Z,1016.96
2017-12-04T00:11:40.164Z,1016.99
2017-12-04T00:12:40.758Z,1017.00
2017-12-04T00:13:41.368Z,1017.03
2017-12-04T00:14:41.980Z,1017.02
2017-12-04T00:15:42.567Z,1017.02
2017-12-04T00:16:43.163Z,1017.04
2017-12-04T00:17:43.768Z,1017.04
2017-12-04T00:18:44.361Z,1017.09
2017-12-04T00:19:44.958Z,1017.07
2017-12-04T00:20:45.547Z,1017.09
2017-12-04T00:21:46.143Z,1017.16
2017-12-04T00:22:46.732Z,1017.18
2017-12-04T00:23:47.321Z,1017.12
2017-12-04T00:24:47.968Z,1017.12
2017-12-04T00:25:48.523Z,1017.14
2017-12-04T00:26:49.117Z,1017.11
2017-12-04T00:27:49.711Z,1017.10
2017-12-04T00:28:50.326Z,1017.06
2017-12-04T00:29:50.934Z,1017.13
2017-12-04T00:30:51.539Z,1017.13
2017-12-04T00:31:52.133Z,1017.16
2017-12-04T00:32:52.731Z,1017.15
2017-12-04T00:33:53.339Z,1017.15
2017-12-04T00:34:53.943Z,1017.12
2017-12-04T00:35:54.547Z,1017.15
2017-12-04T00:36:55.152Z,1017.16
2017-12-04T00:37:55.757Z,1017.12
2017-12-04T00:38:56.349Z,1017.14
2017-12-04T00:39:56.962Z,1017.14
2017-12-04T00:40:57.570Z,1017.12
2017-12-04T00:41:58.173Z,1017.13
2017-12-04T00:42:58.785Z,1017.16
2017-12-04T00:43:59.390Z,1017.18
2017-12-04T00:44:59.988Z,1017.19
2017-12-04T00:46:00.593Z,1017.18
2017-12-04T00:47:01.192Z,1017.23
2017-12-04T00:48:01.799Z,1017.21
2017-12-04T00:49:02.404Z,1017.24
2017-12-04T00:50:02.993Z,1017.20
2017-12-04T00:51:03.590Z,1017.17
2017-12-04T00:52:04.198Z,1017.18
2017-12-04T00:53:04.809Z,1017.19
2017-12-04T00:54:05.419Z,1017.20
2017-12-04T00:55:06.015Z,1017.26
2017-12-04T00:56:06.612Z,1017.28
2017-12-04T00:57:07.213Z,1017.27
2017-12-04T00:58:07.815Z,1017.33
2017-12-04T00:59:08.416Z,1017.29
2017-12-04T01:00:09.010Z,1017.31
2017-12-04T01:01:54.587Z,1017.32
2017-12-04T01:02:55.190Z,1017.28
2017-12-04T01:03:55.794Z,1017.30
2017-12-04T01:04:56.388Z,1017.35
2017-12-04T01:05:56.992Z,1017.36
2017-12-04T01:06:57.600Z,1017.33
2017-12-04T01:07:58.194Z,1017.31
2017-12-04T01:08:58.792Z,1017.36
2017-12-04T01:09:59.379Z,1017.36
2017-12-04T01:10:59.982Z,1017.39
2017-12-04T01:12:00.591Z,1017.39
2017-12-04T01:13:01.189Z,1017.41
2017-12-04T01:14:01.791Z,1017.41
2017-12-04T01:15:02.413Z,1017.41
2017-12-04T01:16:03.006Z,1017.43
2017-12-04T01:17:03.606Z,1017.41
2017-12-04T01:18:04.203Z,1017.42
2017-12-04T01:19:04.800Z,1017.38
2017-12-04T01:20:05.403Z,1017.42
2017-12-04T01:21:06.014Z,1017.38
2017-12-04T01:22:06.618Z,1017.39
2017-12-04T01:23:07.223Z,1017.37
2017-12-04T01:24:07.822Z,1017.39
2017-12-04T01:25:08.427Z,1017.38
2017-12-04T01:26:09.038Z,1017.41
2017-12-04T01:27:09.634Z,1017.38
2017-12-04T01:28:10.243Z,1017.39
2017-12-04T01:29:10.838Z,1017.38
2017-12-04T01:30:11.437Z,1017.40
2017-12-04T01:31:12.029Z,1017.41
2017-12-04T01:32:12.623Z,1017.42
2017-12-04T01:33:13.238Z,1017.44
2017-12-04T01:34:13.830Z,1017.46
2017-12-04T01:35:14.435Z,1017.48
2017-12-04T01:36:15.042Z,1017.48
2017-12-04T01:37:15.656Z,1017.44
2017-12-04T01:38:16.249Z,1017.47
2017-12-04T01:39:16.845Z,1017.49
2017-12-04T01:40:17.499Z,1017.41
2017-12-04T01:41:18.050Z,1017.48
2017-12-04T01:42:18.644Z,1017.48
2017-12-04T01:43:19.250Z,1017.49
2017-12-04T01:44:19.841Z,1017.47
2017-12-04T01:45:20.442Z,1017.46
2017-12-04T01:46:21.034Z,1017.49
2017-12-04T01:47:21.637Z,1017.53
2017-12-04T01:48:22.237Z,1017.49
2017-12-04T01:49:22.826Z,1017.49
2017-12-04T01:50:23.425Z,1017.54
2017-12-04T01:51:24.029Z,1017.51
2017-12-04T01:52:24.635Z,1017.56
2017-12-04T01:53:25.237Z,1017.53
2017-12-04T01:54:25.874Z,1017.54
2017-12-04T01:55:26.454Z,1017.54
2017-12-04T01:56:27.052Z,1017.53
2017-12-04T01:57:27.651Z,1017.51
2017-12-04T01:58:28.258Z,1017.50
2017-12-04T01:59:28.868Z,1017.48
2017-12-04T02:00:29.473Z,1017.49
2017-12-04T02:01:30.077Z,1017.46
2017-12-04T02:02:30.687Z,1017.52
2017-12-04T02:03:31.299Z,1017.53
2017-12-04T02:04:31.908Z,1017.47
2017-12-04T02:05:32.504Z,1017.49
2017-12-04T02:06:33.095Z,1017.47
2017-12-04T02:07:33.698Z,1017.48
2017-12-04T02:08:34.306Z,1017.49
2017-12-04T02:09:34.896Z,1017.49
2017-12-04T02:10:35.497Z,1017.52
2017-12-04T02:11:36.087Z,1017.49
2017-12-04T02:12:36.682Z,1017.51
2017-12-04T02:13:37.278Z,1017.50
2017-12-04T02:14:37.869Z,1017.55
2017-12-04T02:15:38.457Z,1017.52
2017-12-04T02:16:39.056Z,1017.50
2017-12-04T02:17:39.653Z,1017.53
2017-12-04T02:18:40.248Z,1017.51
2017-12-04T02:19:40.844Z,1017.50
2017-12-04T02:20:41.431Z,1017.52
2017-12-04T02:21:42.026Z,1017.53
2017-12-04T02:22:42.670Z,1017.52
2017-12-04T02:23:43.213Z,1017.54
2017-12-04T02:24:43.824Z,1017.53
2017-12-04T02:25:44.428Z,1017.53
2017-12-04T02:26:45.025Z,1017.53
2017-12-04T02:27:45.623Z,1017.53
2017-12-04T02:28:46.239Z,1017.54
2017-12-04T02:29:46.824Z,1017.55
2017-12-04T02:30:47.419Z,1017.53
2017-12-04T02:31:48.014Z,1017.55
2017-12-04T02:32:48.616Z,1017.58
2017-12-04T02:33:49.212Z,1017.59
2017-12-04T02:34:49.802Z,1017.59
2017-12-04T02:35:50.401Z,1017.62
2017-12-04T02:36:51.009Z,1017.62
2017-12-04T02:37:51.623Z,1017.60
2017-12-04T02:38:52.226Z,1017.62
2017-12-04T02:39:52.828Z,1017.63
2017-12-04T02:40:53.438Z,1017.60
2017-12-04T02:41:54.030Z,1017.63
2017-12-04T02:42:54.632Z,1017.63
2017-12-04T02:43:55.245Z,1017.66
2017-12-04T02:44:55.834Z,1017.62
2017-12-04T02:45:56.424Z,1017.61
2017-12-04T02:46:57.018Z,1017.56
2017-12-04T02:47:57.614Z,1017.60
2017-12-04T02:48:58.204Z,1017.61
2017-12-04T02:49:58.805Z,1017.63
2017-12-04T02:50:59.403Z,1017.64
2017-12-04T02:52:00.013Z,1017.62
2017-12-04T02:53:00.608Z,1017.67
2017-12-04T02:54:01.220Z,1017.70
2017-12-04T02:55:01.815Z,1017.65
2017-12-04T02:56:02.407Z,1017.66
2017-12-04T02:57:03.010Z,1017.64
2017-12-04T02:58:03.598Z,1017.63
2017-12-04T02:59:04.202Z,1017.60
2017-12-04T03:00:04.802Z,1017.55
2017-12-04T03:01:05.401Z,1017.52
2017-12-04T03:02:05.997Z,1017.55
2017-12-04T03:03:06.588Z,1017.49
2017-12-04T03:04:07.183Z,1017.49
2017-12-04T03:05:07.778Z,1017.43
2017-12-04T03:06:08.379Z,1017.46
2017-12-04T03:07:08.976Z,1017.47
2017-12-04T03:08:09.572Z,1017.47
2017-12-04T03:09:10.163Z,1017.49
2017-12-04T03:10:10.765Z,1017.51
2017-12-04T03:11:11.368Z,1017.55
2017-12-04T03:12:11.967Z,1017.50
2017-12-04T03:13:12.570Z,1017.41
2017-12-04T03:14:13.173Z,1017.42
2017-12-04T03:15:13.776Z,1017.47
2017-12-04T03:16:14.389Z,1017.39
2017-12-04T03:17:15.000Z,1017.32
2017-12-04T03:18:15.589Z,1017.32
2017-12-04T03:19:16.189Z,1017.35
2017-12-04T03:20:16.803Z,1017.38
2017-12-04T03:21:17.392Z,1017.39
2017-12-04T03:22:17.989Z,1017.36
2017-12-04T03:23:18.600Z,1017.36
2017-12-04T03:24:19.192Z,1017.38
2017-12-04T03:25:19.791Z,1017.41
2017-12-04T03:26:20.380Z,1017.43
2017-12-04T03:27:20.970Z,1017.45
2017-12-04T03:28:21.560Z,1017.44
2017-12-04T03:29:22.149Z,1017.43
2017-12-04T03:30:22.753Z,1017.43
2017-12-04T03:31:23.350Z,1017.46
2017-12-04T03:32:23.937Z,1017.51
2017-12-04T03:33:24.542Z,1017.44
2017-12-04T03:34:25.156Z,1017.52
2017-12-04T03:35:25.760Z,1017.43
2017-12-04T03:36:26.346Z,1017.40
2017-12-04T03:37:26.953Z,1017.42
2017-12-04T03:38:27.553Z,1017.43
2017-12-04T03:39:28.141Z,1017.45
2017-12-04T03:40:28.744Z,1017.44
2017-12-04T03:41:29.351Z,1017.48
2017-12-04T03:42:29.956Z,1017.49
2017-12-04T03:43:30.560Z,1017.44
2017-12-04T03:44:31.155Z,1017.45
2017-12-04T03:45:31.751Z,1017.42
2017-12-04T03:46:32.338Z,1017.45
2017-12-04T03:47:32.944Z,1017.51
2017-12-04T03:48:33.554Z,1017.57
2017-12-04T03:49:34.163Z,1017.58
2017-12-04T03:50:34.779Z,1017.67
2017-12-04T03:51:35.387Z,1017.73
2017-12-04T03:52:35.991Z,1017.78
2017-12-04T03:53:36.594Z,1017.81
2017-12-04T03:54:37.199Z,1017.82
2017-12-04T03:55:37.795Z,1017.80
2017-12-04T03:56:38.399Z,1017.81
2017-12-04T03:57:39.002Z,1017.82
2017-12-04T03:58:39.595Z,1017.81
2017-12-04T03:59:40.191Z,1017.83
2017-12-04T04:00:40.784Z,1017.79
2017-12-04T04:01:41.392Z,1017.80
2017-12-04T04:02:41.983Z,1017.77
2017-12-04T04:03:42.571Z,1017.79
2017-12-04T04:04:43.158Z,1017.74
2017-12-04T04:05:43.748Z,1017.78
2017-12-04T04:06:44.354Z,1017.72
2017-12-04T04:07:44.965Z,1017.77
2017-12-04T04:08:45.574Z,1017.78
2017-12-04T04:09:46.168Z,1017.76
2017-12-04T04:10:46.766Z,1017.74
2017-12-04T04:11:47.366Z,1017.77
2017-12-04T04:12:47.962Z,1017.84
2017-12-04T04:13:48.560Z,1017.87
2017-12-04T04:14:49.148Z,1017.79
2017-12-04T04:15:49.742Z,1017.77
2017-12-04T04:16:50.325Z,1017.80
2017-12-04T04:17:50.918Z,1017.84
2017-12-04T04:18:51.510Z,1017.80
2017-12-04T04:19:52.100Z,1017.80
2017-12-04T04:20:52.698Z,1017.81
2017-12-04T04:21:53.299Z,1017.77
2017-12-04T04:22:53.899Z,1017.81
2017-12-04T04:23:54.507Z,1017.77
2017-12-04T04:24:55.105Z,1017.81
2017-12-04T04:25:55.707Z,1017.79
2017-12-04T04:26:56.301Z,1017.80
2017-12-04T04:27:56.891Z,1017.82
2017-12-04T04:28:57.484Z,1017.77
2017-12-04T04:29:58.098Z,1017.76
2017-12-04T04:30:58.703Z,1017.77
2017-12-04T04:31:59.303Z,1017.83
2017-12-04T04:32:59.913Z,1017.80
2017-12-04T04:34:00.502Z,1017.84
2017-12-04T04:35:01.102Z,1017.84
2017-12-04T04:36:01.711Z,1017.83
2017-12-04T04:37:02.302Z,1017.82
2017-12-04T04:38:02.900Z,1017.84
2017-12-04T04:39:03.499Z,1017.80
2017-12-04T04:40:04.100Z,1017.89
2017-12-04T04:41:04.690Z,1017.84
2017-12-04T04:42:05.285Z,1017.81
2017-12-04T04:43:05.871Z,1017.84
2017-12-04T04:44:06.477Z,1017.80
2017-12-04T04:45:07.088Z,1017.75
2017-12-04T04:46:07.691Z,1017.74
2017-12-04T04:47:08.293Z,1017.78
2017-12-04T04:48:08.887Z,1017.75
2017-12-04T04:49:09.482Z,1017.73
2017-12-04T04:50:10.094Z,1017.73
2017-12-04T04:51:10.689Z,1017.77
2017-12-04T04:52:11.291Z,1017.78
2017-12-04T04:53:11.896Z,1017.80
2017-12-04T04:54:12.506Z,1017.78
2017-12-04T04:55:13.112Z,1017.78
2017-12-04T04:56:13.729Z,1017.84
2017-12-04T04:57:14.331Z,1017.83
2017-12-04T04:58:14.935Z,1017.82
2017-12-04T04:59:15.545Z,1017.84
2017-12-04T05:00:16.152Z,1017.86
2017-12-04T05:01:16.765Z,1017.88
2017-12-04T05:02:17.369Z,1017.86
2017-12-04T05:03:17.969Z,1017.87
2017-12-04T05:04:18.564Z,1017.85
2017-12-04T05:05:19.156Z,1017.87
2017-12-04T05:06:19.748Z,1017.89
2017-12-04T05:07:20.344Z,1017.86
2017-12-04T05:08:20.958Z,1017.87
2017-12-04T05:09:21.565Z,1017.84
2017-12-04T05:10:22.174Z,1017.79
2017-12-04T05:11:22.765Z,1017.80
2017-12-04T05:12:23.363Z,1017.83
2017-12-04T05:13:23.962Z,1017.79
2017-12-04T05:14:24.551Z,1017.80
2017-12-04T05:15:25.145Z,1017.81
2017-12-04T05:16:25.801Z,1017.82
2017-12-04T05:17:26.348Z,1017.78
2017-12-04T05:18:26.943Z,1017.75
2017-12-04T05:19:27.532Z,1017.80
2017-12-04T05:20:28.138Z,1017.77
2017-12-04T05:21:28.740Z,1017.78
2017-12-04T05:22:29.331Z,1017.76
2017-12-04T05:23:29.934Z,1017.76
2017-12-04T05:24:30.524Z,1017.77
2017-12-04T05:25:31.112Z,1017.80
2017-12-04T05:26:31.709Z,1017.78
2017-12-04T05:27:32.298Z,1017.79
2017-12-04T05:28:32.905Z,1017.85
2017-12-04T05:29:33.496Z,1017.80
2017-12-04T05:30:34.086Z,1017.83
2017-12-04T05:31:34.679Z,1017.84
2017-12-04T05:32:35.289Z,1017.84
2017-12-04T05:33:35.903Z,1017.85
2017-12-04T05:34:36.546Z,1017.88
2017-12-04T05:35:37.103Z,1017.91
2017-12-04T05:36:37.740Z,1017.94
2017-12-04T05:37:38.305Z,1017.89
2017-12-04T05:38:38.912Z,1017.87
2017-12-04T05:39:39.512Z,1017.87
2017-12-04T05:40:40.123Z,1017.90
2017-12-04T05:41:40.725Z,1017.90
2017-12-04T05:42:41.322Z,1017.91
2017-12-04T05:43:41.927Z,1017.92
2017-12-04T05:44:42.539Z,1017.85
2017-12-04T05:45:43.133Z,1017.84
2017-12-04T05:46:43.725Z,1017.90
2017-12-04T05:47:44.317Z,1017.93
2017-12-04T05:48:44.913Z,1017.93
2017-12-04T05:49:45.506Z,1017.89
2017-12-04T05:50:46.116Z,1017.95
2017-12-04T05:51:46.722Z,1017.91
2017-12-04T05:52:47.317Z,1017.90
2017-12-04T05:53:47.978Z,1017.93
2017-12-04T05:54:48.557Z,1017.93
2017-12-04T05:55:49.157Z,1017.91
2017-12-04T05:56:49.755Z,1017.95
2017-12-04T05:57:50.360Z,1017.95
2017-12-04T05:58:50.966Z,1017.96
2017-12-04T05:59:51.574Z,1017.95
2017-12-04T06:00:52.175Z,1018.01
2017-12-04T06:01:52.780Z,1018.00
2017-12-04T06:02:53.368Z,1018.01
2017-12-04T06:03:53.963Z,1018.03
2017-12-04T06:04:54.568Z,1018.01
2017-12-04T06:05:55.165Z,1018.05
2017-12-04T06:06:55.766Z,1018.09
2017-12-04T06:07:56.356Z,1018.12
2017-12-04T06:08:56.958Z,1018.23
2017-12-04T06:09:57.572Z,1018.26
2017-12-04T06:10:58.164Z,1018.30
2017-12-04T06:11:58.760Z,1018.28
2017-12-04T06:12:59.359Z,1018.30
2017-12-04T06:13:59.949Z,1018.36
2017-12-04T06:15:00.551Z,1018.31
2017-12-04T06:16:01.156Z,1018.37
2017-12-04T06:17:01.751Z,1018.40
2017-12-04T06:18:02.350Z,1018.38
2017-12-04T06:19:02.947Z,1018.42
2017-12-04T06:20:03.541Z,1018.45
2017-12-04T06:21:04.135Z,1018.46
2017-12-04T06:22:04.726Z,1018.49
2017-12-04T06:23:05.429Z,1018.50
2017-12-04T06:24:06.020Z,1018.52
2017-12-04T06:25:06.626Z,1018.58
2017-12-04T06:26:07.230Z,1018.62
2017-12-04T06:27:07.823Z,1018.65
2017-12-04T06:28:08.428Z,1018.66
2017-12-04T06:29:09.024Z,1018.66
2017-12-04T06:30:09.622Z,1018.69
2017-12-04T06:31:10.228Z,1018.65
2017-12-04T06:32:10.844Z,1018.66
2017-12-04T06:33:11.433Z,1018.72
2017-12-04T06:34:12.026Z,1018.72
2017-12-04T06:35:12.632Z,1018.75
2017-12-04T06:36:13.226Z,1018.74
2017-12-04T06:37:13.813Z,1018.75
2017-12-04T06:38:14.411Z,1018.77
2017-12-04T06:39:15.005Z,1018.73
2017-12-04T06:40:15.605Z,1018.77
2017-12-04T06:41:16.216Z,1018.75
2017-12-04T06:42:16.825Z,1018.73
2017-12-04T06:43:17.438Z,1018.73
2017-12-04T06:44:18.033Z,1018.76
2017-12-04T06:45:18.622Z,1018.69
2017-12-04T06:46:19.216Z,1018.68
2017-12-04T06:47:19.805Z,1018.68
2017-12-04T06:48:20.403Z,1018.65
2017-12-04T06:49:20.997Z,1018.67
2017-12-04T06:50:21.588Z,1018.74
2017-12-04T06:51:22.183Z,1018.75
2017-12-04T06:52:22.804Z,1018.75
2017-12-04T06:53:23.407Z,1018.78
2017-12-04T06:54:24.009Z,1018.79
2017-12-04T06:55:24.612Z,1018.79
2017-12-04T06:56:25.217Z,1018.72
2017-12-04T06:57:25.820Z,1018.72
2017-12-04T06:58:26.427Z,1018.73
2017-12-04T06:59:27.031Z,1018.68
2017-12-04T07:00:27.643Z,1018.72
2017-12-04T07:01:28.236Z,1018.70
2017-12-04T07:02:28.825Z,1018.71
2017-12-04T07:03:29.430Z,1018.73
2017-12-04T07:04:30.022Z,1018.72
2017-12-04T07:05:30.639Z,1018.72
2017-12-04T07:06:31.264Z,1018.77
2017-12-04T07:07:31.831Z,1018.79
2017-12-04T07:08:32.428Z,1018.81
2017-12-04T07:09:33.026Z,1018.75
2017-12-04T07:10:33.629Z,1018.83
2017-12-04T07:11:34.227Z,1018.81
2017-12-04T07:12:34.817Z,1018.83
2017-12-04T07:13:35.414Z,1018.80
2017-12-04T07:14:36.025Z,1018.83
2017-12-04T07:15:36.615Z,1018.86
2017-12-04T07:16:37.211Z,1018.87
2017-12-04T07:17:37.826Z,1018.92
2017-12-04T07:18:38.432Z,1018.91
2017-12-04T07:19:39.031Z,1018.94
2017-12-04T07:20:39.638Z,1018.91
2017-12-04T07:21:40.241Z,1018.97
2017-12-04T07:22:40.840Z,1018.97
2017-12-04T07:23:41.440Z,1019.04
2017-12-04T07:24:42.041Z,1019.00
2017-12-04T07:25:42.640Z,1019.04
2017-12-04T07:26:43.240Z,1019.04
2017-12-04T07:27:43.849Z,1019.09
2017-12-04T07:28:44.454Z,1019.04
2017-12-04T07:29:45.059Z,1019.08
2017-12-04T07:30:45.659Z,1019.07
2017-12-04T07:31:46.264Z,1019.08
2017-12-04T07:32:46.869Z,1018.98
2017-12-04T07:33:47.477Z,1019.02
2017-12-04T07:34:48.074Z,1019.07
2017-12-04T07:35:48.690Z,1019.04
2017-12-04T07:36:49.274Z,1019.05
2017-12-04T07:37:49.955Z,1019.09
2017-12-04T07:38:50.579Z,1019.06
2017-12-04T07:39:51.268Z,1019.05
2017-12-04T07:40:52.341Z,1019.10
2017-12-04T07:41:53.019Z,1019.08
2017-12-04T07:42:53.647Z,1019.07
2017-12-04T07:43:54.254Z,1019.12
2017-12-04T07:44:54.860Z,1019.04
2017-12-04T07:45:55.478Z,1019.05
2017-12-04T07:46:56.087Z,1019.03
2017-12-04T07:47:56.690Z,1019.15
2017-12-04T07:48:57.285Z,1019.11
2017-12-04T07:49:57.893Z,1019.16
2017-12-04T07:50:58.505Z,1019.18
2017-12-04T07:51:59.119Z,1019.23
2017-12-04T07:52:59.730Z,1019.23
2017-12-04T07:54:00.330Z,1019.21
2017-12-04T07:55:00.929Z,1019.32
2017-12-04T07:56:01.520Z,1019.25
2017-12-04T07:57:02.115Z,1019.25
2017-12-04T07:58:02.720Z,1019.26
2017-12-04T07:59:03.321Z,1019.32
2017-12-04T08:00:03.921Z,1019.28
2017-12-04T08:01:04.524Z,1019.34
2017-12-04T08:02:05.128Z,1019.32
2017-12-04T08:03:05.716Z,1019.30
2017-12-04T08:04:06.323Z,1019.32
2017-12-04T08:05:06.932Z,1019.39
2017-12-04T08:06:07.533Z,1019.40
2017-12-04T08:07:08.135Z,1019.45
2017-12-04T08:08:08.753Z,1019.50
2017-12-04T08:09:09.349Z,1019.48
2017-12-04T08:10:09.959Z,1019.47
2017-12-04T08:11:10.550Z,1019.53
2017-12-04T08:12:11.171Z,1019.43
2017-12-04T08:13:11.752Z,1019.52
2017-12-04T08:14:12.355Z,1019.55
2017-12-04T08:15:12.960Z,1019.58
2017-12-04T08:16:13.565Z,1019.60
2017-12-04T08:17:14.163Z,1019.61
2017-12-04T08:18:14.766Z,1019.64
2017-12-04T08:19:15.379Z,1019.61
2017-12-04T08:20:15.990Z,1019.62
2017-12-04T08:21:16.597Z,1019.61
2017-12-04T08:22:17.198Z,1019.60
2017-12-04T08:23:17.791Z,1019.64
2017-12-04T08:24:18.399Z,1019.59
2017-12-04T08:25:19.000Z,1019.62
2017-12-04T08:26:19.609Z,1019.66
2017-12-04T08:27:20.213Z,1019.63
2017-12-04T08:28:20.817Z,1019.65
2017-12-04T08:29:21.425Z,1019.60
2017-12-04T08:30:22.020Z,1019.56
2017-12-04T08:31:22.627Z,1019.60
2017-12-04T08:32:23.220Z,1019.60
2017-12-04T08:33:23.825Z,1019.63
2017-12-04T08:34:24.426Z,1019.63
2017-12-04T08:35:25.033Z,1019.63
2017-12-04T08:36:25.648Z,1019.66
2017-12-04T08:37:26.247Z,1019.58
2017-12-04T08:38:26.867Z,1019.59
2017-12-04T08:39:27.479Z,1019.56
2017-12-04T08:40:28.087Z,1019.56
2017-12-04T08:41:28.711Z,1019.50
2017-12-04T08:42:29.315Z,1019.52
2017-12-04T08:43:29.932Z,1019.53
2017-12-04T08:44:30.548Z,1019.54
2017-12-04T08:45:31.150Z,1019.52
2017-12-04T08:46:31.748Z,1019.56
2017-12-04T08:47:32.356Z,1019.58
2017-12-04T08:48:32.955Z,1019.62
2017-12-04T08:49:33.560Z,1019.60
2017-12-04T08:50:34.174Z,1019.58
2017-12-04T08:51:34.767Z,1019.54
2017-12-04T08:52:35.381Z,1019.56
2017-12-04T08:53:36.001Z,1019.58
2017-12-04T08:54:36.598Z,1019.56
2017-12-04T08:55:37.219Z,1019.55
2017-12-04T08:56:37.837Z,1019.54
2017-12-04T08:57:38.449Z,1019.56
2017-12-04T08:58:39.097Z,1019.56
2017-12-04T08:59:39.669Z,1019.57
2017-12-04T09:00:40.266Z,1019.55
2017-12-04T09:01:40.868Z,1019.50
2017-12-04T09:02:41.470Z,1019.60
2017-12-04T09:03:42.070Z,1019.56
2017-12-04T09:04:42.682Z,1019.53
2017-12-04T09:05:43.302Z,1019.52
2017-12-04T09:06:43.929Z,1019.54
2017-12-04T09:07:44.533Z,1019.52
2017-12-04T09:08:45.134Z,1019.53
2017-12-04T09:09:45.740Z,1019.53
2017-12-04T09:10:46.465Z,1019.52
2017-12-04T09:11:47.084Z,1019.54
2017-12-04T09:12:47.697Z,1019.54
2017-12-04T09:13:48.300Z,1019.52
2017-12-04T09:14:48.906Z,1019.54
2017-12-04T09:15:49.512Z,1019.55
2017-12-04T09:16:50.112Z,1019.57
2017-12-04T09:17:50.718Z,1019.59
2017-12-04T09:18:51.327Z,1019.59
2017-12-04T09:19:51.932Z,1019.55
2017-12-04T09:20:52.552Z,1019.59
2017-12-04T09:21:53.179Z,1019.56
2017-12-04T09:22:53.801Z,1019.55
2017-12-04T09:23:54.433Z,1019.55
2017-12-04T09:24:55.051Z,1019.54
2017-12-04T09:25:55.663Z,1019.47
2017-12-04T09:26:56.293Z,1019.45
2017-12-04T09:27:56.900Z,1019.52
2017-12-04T09:28:57.519Z,1019.52
2017-12-04T09:29:58.126Z,1019.58
2017-12-04T09:30:58.754Z,1019.58
2017-12-04T09:31:59.376Z,1019.57
2017-12-04T09:32:59.976Z,1019.62
2017-12-04T09:34:00.599Z,1019.66
2017-12-04T09:35:01.202Z,1019.72
2017-12-04T09:36:01.814Z,1019.69
2017-12-04T09:37:02.420Z,1019.69
2017-12-04T09:38:03.044Z,1019.67
2017-12-04T09:39:03.657Z,1019.69
2017-12-04T09:40:04.262Z,1019.67
2017-12-04T09:41:04.879Z,1019.63
2017-12-04T09:42:05.481Z,1019.68
2017-12-04T09:43:06.084Z,1019.63
2017-12-04T09:44:06.685Z,1019.67
2017-12-04T09:45:07.301Z,1019.70
2017-12-04T09:46:07.919Z,1019.69
2017-12-04T09:47:08.533Z,1019.71
2017-12-04T09:48:09.146Z,1019.74
2017-12-04T09:49:09.748Z,1019.75
2017-12-04T09:50:10.353Z,1019.79
2017-12-04T09:51:10.963Z,1019.81
2017-12-04T09:52:11.570Z,1019.83
2017-12-04T09:53:12.177Z,1019.84
2017-12-04T09:54:12.801Z,1019.85
2017-12-04T09:55:13.463Z,1019.83
2017-12-04T09:56:14.075Z,1019.87
2017-12-04T09:57:14.689Z,1019.89
2017-12-04T09:58:15.303Z,1019.91
2017-12-04T09:59:15.914Z,1019.90
2017-12-04T10:00:16.517Z,1019.94
2017-12-04T10:01:17.139Z,1019.92
2017-12-04T10:02:17.758Z,1019.92
2017-12-04T10:03:18.375Z,1019.94
2017-12-04T10:04:18.978Z,1019.90
2017-12-04T10:05:19.583Z,1019.93
2017-12-04T10:06:20.199Z,1019.95
2017-12-04T10:07:20.794Z,1019.98
2017-12-04T10:08:21.400Z,1019.97
2017-12-04T10:09:22.023Z,1019.90
2017-12-04T10:10:22.653Z,1019.95
2017-12-04T10:11:23.251Z,1019.93
2017-12-04T10:12:23.862Z,1019.95
2017-12-04T10:13:24.472Z,1019.94
2017-12-04T10:14:25.072Z,1019.97
2017-12-04T10:15:25.799Z,1020.03
2017-12-04T10:16:26.628Z,1020.07
2017-12-04T10:17:27.242Z,1020.09
2017-12-04T10:18:27.855Z,1020.06
2017-12-04T10:19:28.472Z,1020.10
2017-12-04T10:20:29.088Z,1020.10
2017-12-04T10:21:29.702Z,1020.10
2017-12-04T10:22:30.316Z,1020.06
2017-12-04T10:23:30.933Z,1020.11
2017-12-04T10:24:31.581Z,1020.07
2017-12-04T10:25:32.138Z,1020.17
2017-12-04T10:26:32.734Z,1020.17
2017-12-04T10:27:33.336Z,1020.17
2017-12-04T10:28:33.939Z,1020.15
2017-12-04T10:29:34.567Z,1020.17
2017-12-04T10:30:35.160Z,1020.15
2017-12-04T10:31:35.764Z,1020.16
2017-12-04T10:32:36.364Z,1020.14
2017-12-04T10:33:36.971Z,1020.10
2017-12-04T10:34:37.586Z,1020.13
2017-12-04T10:35:38.191Z,1020.14
2017-12-04T10:36:38.809Z,1020.19
2017-12-04T10:37:39.427Z,1020.13
2017-12-04T10:38:40.042Z,1020.13
2017-12-04T10:39:40.668Z,1020.19
2017-12-04T10:40:41.296Z,1020.16
2017-12-04T10:41:41.904Z,1020.24
2017-12-04T10:42:42.588Z,1020.24
2017-12-04T10:43:43.201Z,1020.23
2017-12-04T10:44:43.810Z,1020.26
2017-12-04T10:45:44.419Z,1020.30
2017-12-04T10:46:45.041Z,1020.31
2017-12-04T10:47:45.634Z,1020.29
2017-12-04T10:48:46.230Z,1020.26
2017-12-04T10:49:46.842Z,1020.32
2017-12-04T10:50:47.448Z,1020.31
2017-12-04T10:51:48.060Z,1020.27
2017-12-04T10:52:48.678Z,1020.33
2017-12-04T10:53:49.296Z,1020.34
2017-12-04T10:54:49.894Z,1020.26
2017-12-04T10:55:50.497Z,1020.28
2017-12-04T10:56:51.105Z,1020.31
2017-12-04T10:57:51.716Z,1020.38
2017-12-04T10:58:52.336Z,1020.40
2017-12-04T10:59:52.959Z,1020.35
2017-12-04T11:00:53.588Z,1020.37
2017-12-04T11:01:54.208Z,1020.37
2017-12-04T11:02:54.812Z,1020.38
2017-12-04T11:03:55.419Z,1020.36
2017-12-04T11:04:56.029Z,1020.34
2017-12-04T11:05:56.624Z,1020.35
2017-12-04T11:06:57.236Z,1020.33
2017-12-04T11:07:57.849Z,1020.37
2017-12-04T11:08:58.465Z,1020.35
2017-12-04T11:09:59.082Z,1020.35
2017-12-04T11:10:59.690Z,1020.37
2017-12-04T11:12:00.295Z,1020.33
2017-12-04T11:13:00.909Z,1020.37
2017-12-04T11:14:01.529Z,1020.33
2017-12-04T11:15:02.269Z,1020.34
2017-12-04T11:16:02.895Z,1020.31
2017-12-04T11:17:03.497Z,1020.27
2017-12-04T11:18:04.115Z,1020.28
2017-12-04T11:19:04.733Z,1020.27
2017-12-04T11:20:05.426Z,1020.26
2017-12-04T11:21:06.045Z,1020.26
2017-12-04T11:22:06.654Z,1020.26
2017-12-04T11:23:07.283Z,1020.23
2017-12-04T11:24:07.911Z,1020.17
2017-12-04T11:25:08.535Z,1020.19
2017-12-04T11:26:09.169Z,1020.22
2017-12-04T11:27:09.772Z,1020.24
2017-12-04T11:28:10.387Z,1020.22
2017-12-04T11:29:11.004Z,1020.29
2017-12-04T11:30:11.623Z,1020.24
2017-12-04T11:31:12.253Z,1020.22
2017-12-04T11:32:12.872Z,1020.22
2017-12-04T11:33:13.492Z,1020.26
2017-12-04T11:34:14.113Z,1020.23
2017-12-04T11:35:14.728Z,1020.30
2017-12-04T11:36:15.340Z,1020.29
2017-12-04T11:37:15.961Z,1020.33
2017-12-04T11:38:16.589Z,1020.30
2017-12-04T11:39:17.212Z,1020.34
2017-12-04T11:40:17.811Z,1020.32
2017-12-04T11:41:18.438Z,1020.34
2017-12-04T11:42:19.074Z,1020.33
2017-12-04T11:43:19.679Z,1020.36
2017-12-04T11:44:20.287Z,1020.37
2017-12-04T11:45:20.892Z,1020.37
2017-12-04T11:46:21.504Z,1020.38
2017-12-04T11:47:22.096Z,1020.42
2017-12-04T11:48:22.709Z,1020.36
2017-12-04T11:49:23.363Z,1020.36
2017-12-04T11:50:23.999Z,1020.37
2017-12-04T11:51:24.614Z,1020.36
2017-12-04T11:52:25.237Z,1020.41
2017-12-04T11:53:25.847Z,1020.45
2017-12-04T11:54:26.467Z,1020.43
2017-12-04T11:55:27.092Z,1020.41
2017-12-04T11:56:27.692Z,1020.48
2017-12-04T11:57:28.312Z,1020.44
2017-12-04T11:58:28.940Z,1020.42
2017-12-04T11:59:29.549Z,1020.41
2017-12-04T12:00:30.171Z,1020.44
2017-12-04T12:01:30.764Z,1020.43
2017-12-04T12:02:31.395Z,1020.45
2017-12-04T12:03:32.025Z,1020.44
2017-12-04T12:04:32.632Z,1020.45
2017-12-04T12:05:33.489Z,1020.43
2017-12-04T12:06:34.096Z,1020.43
2017-12-04T12:07:34.722Z,1020.45
2017-12-04T12:08:35.574Z,1020.38
2017-12-04T12:09:36.250Z,1020.35
2017-12-04T12:10:36.873Z,1020.36
2017-12-04T12:11:37.487Z,1020.32
2017-12-04T12:12:38.108Z,1020.34
2017-12-04T12:13:38.731Z,1020.25